首页
METAR-TAF:

METAR-TAF

机场 :

Findlay Airport

Findlay, 俄亥俄州, 美国

纬度: 41-00-49N, 经度: 083-40-07W, 海拔: 248米

当前天气观测

该预报发布于16分钟前的11:53 UTC
风速3节,风向南转南东
温度 21°C
湿度 83%
气压 1017 hPa
能見度: 9.7公里
散云层高于8000英尺

METAR: KFDY 231153Z AUTO 16003KT 6SM HZ SCT080 21/18 A3004 RMK AO2 SLP162 70003 T02060178 10206 20183 53011

时间: 08:09 (12:09 UTC)

预报

该预报发布于34分钟前的11:35 UTC
预报有效从23日的 12点(UTC)到 24日的 12点(UTC)
风速3节,风向
能見度: 10公里
多云层高于10000英尺
从 23日的 1700点(UTC)
风速6节,风向西南
能見度: 10公里
多云层高于8000英尺
从 24日的 0000点(UTC)
风速4节,风向西南
能見度: 10公里
散云层高于25000英尺

TAF: KFDY 231135Z 2312/2412 19003KT P6SM BKN100 FM231700 22006KT P6SM BKN080 FM240000 23004KT P6SM SCT250

超过4000个机场的气象观测和天气预报(METAR&TAF报告)。

可查询的气象台以黄色和红色小点在地图上表示。

将鼠标移到小点上方,可查看气象台名称。

然后点击查看天气观测和预报。

如需切换地图:点击带黑十字的绿色按钮放大地图;点击带横线的绿色按钮缩小地图;或者点击绿色箭头查看邻近地区的地图。


METAR-TAF: